sensor_id;sensor_type;location;lat;lon;timestamp;temperature;humidity
33903;DHT22;20194;50.950;5.346;2023-02-15T00:01:42;6.80;1.00
33903;DHT22;20194;50.950;5.346;2023-02-15T00:04:08;6.80;1.00
33903;DHT22;20194;50.950;5.346;2023-02-15T00:06:35;6.80;1.00
33903;DHT22;20194;50.950;5.346;2023-02-15T00:09:02;6.70;1.00
33903;DHT22;20194;50.950;5.346;2023-02-15T00:11:28;6.60;1.00
33903;DHT22;20194;50.950;5.346;2023-02-15T00:14:15;6.60;1.00
33903;DHT22;20194;50.950;5.346;2023-02-15T00:16:42;6.50;1.00
33903;DHT22;20194;50.950;5.346;2023-02-15T00:19:10;6.50;1.00
33903;DHT22;20194;50.950;5.346;2023-02-15T00:21:36;6.40;1.00
33903;DHT22;20194;50.950;5.346;2023-02-15T00:24:04;6.40;1.00
33903;DHT22;20194;50.950;5.346;2023-02-15T00:26:30;6.40;1.00
33903;DHT22;20194;50.950;5.346;2023-02-15T00:28:57;6.40;1.00
33903;DHT22;20194;50.950;5.346;2023-02-15T00:31:27;6.40;1.00
33903;DHT22;20194;50.950;5.346;2023-02-15T00:33:53;6.30;1.00
33903;DHT22;20194;50.950;5.346;2023-02-15T00:36:19;6.20;1.00
33903;DHT22;20194;50.950;5.346;2023-02-15T00:38:44;6.20;1.00
33903;DHT22;20194;50.950;5.346;2023-02-15T00:41:10;6.00;1.00
33903;DHT22;20194;50.950;5.346;2023-02-15T00:43:36;6.10;1.00
33903;DHT22;20194;50.950;5.346;2023-02-15T00:46:03;6.00;1.00
33903;DHT22;20194;50.950;5.346;2023-02-15T00:48:30;6.00;1.00
33903;DHT22;20194;50.950;5.346;2023-02-15T00:50:57;6.00;1.00
33903;DHT22;20194;50.950;5.346;2023-02-15T00:53:25;5.90;1.00
33903;DHT22;20194;50.950;5.346;2023-02-15T00:55:51;5.90;1.00
33903;DHT22;20194;50.950;5.346;2023-02-15T00:58:17;5.90;1.00
33903;DHT22;20194;50.950;5.346;2023-02-15T01:00:45;5.90;1.00
33903;DHT22;20194;50.950;5.346;2023-02-15T01:03:12;6.00;1.00
33903;DHT22;20194;50.950;5.346;2023-02-15T01:05:38;5.80;1.00
33903;DHT22;20194;50.950;5.346;2023-02-15T01:08:04;5.80;1.00
33903;DHT22;20194;50.950;5.346;2023-02-15T01:10:30;5.90;1.00
33903;DHT22;20194;50.950;5.346;2023-02-15T01:12:57;5.80;1.00
33903;DHT22;20194;50.950;5.346;2023-02-15T01:15:23;5.70;1.00
33903;DHT22;20194;50.950;5.346;2023-02-15T01:17:49;5.70;1.00
33903;DHT22;20194;50.950;5.346;2023-02-15T01:20:28;5.80;1.00
33903;DHT22;20194;50.950;5.346;2023-02-15T01:22:54;5.80;1.60
33903;DHT22;20194;50.950;5.346;2023-02-15T01:25:22;5.80;1.00
33903;DHT22;20194;50.950;5.346;2023-02-15T01:27:49;5.70;1.00
33903;DHT22;20194;50.950;5.346;2023-02-15T01:30:16;5.70;1.00
33903;DHT22;20194;50.950;5.346;2023-02-15T01:32:42;5.70;1.00
33903;DHT22;20194;50.950;5.346;2023-02-15T01:35:09;5.70;1.00
33903;DHT22;20194;50.950;5.346;2023-02-15T01:37:35;5.60;1.00
33903;DHT22;20194;50.950;5.346;2023-02-15T01:40:03;5.40;1.00
33903;DHT22;20194;50.950;5.346;2023-02-15T01:42:30;5.40;1.00
33903;DHT22;20194;50.950;5.346;2023-02-15T01:44:58;5.40;1.00
33903;DHT22;20194;50.950;5.346;2023-02-15T01:47:46;5.40;1.00
33903;DHT22;20194;50.950;5.346;2023-02-15T01:52:58;5.30;1.00
33903;DHT22;20194;50.950;5.346;2023-02-15T01:55:28;5.30;2.60
33903;DHT22;20194;50.950;5.346;2023-02-15T01:57:54;5.20;1.10
33903;DHT22;20194;50.950;5.346;2023-02-15T02:00:20;4.90;9.40
33903;DHT22;20194;50.950;5.346;2023-02-15T02:02:49;4.60;19.00
33903;DHT22;20194;50.950;5.346;2023-02-15T02:05:16;4.60;22.90
33903;DHT22;20194;50.950;5.346;2023-02-15T02:07:44;4.60;21.70
33903;DHT22;20194;50.950;5.346;2023-02-15T02:10:15;4.70;20.90
33903;DHT22;20194;50.950;5.346;2023-02-15T02:12:42;4.90;18.40
33903;DHT22;20194;50.950;5.346;2023-02-15T02:15:09;5.10;16.70
33903;DHT22;20194;50.950;5.346;2023-02-15T02:17:43;5.20;14.60
33903;DHT22;20194;50.950;5.346;2023-02-15T02:23:19;5.20;9.60
33903;DHT22;20194;50.950;5.346;2023-02-15T02:34:03;5.20;7.90
33903;DHT22;20194;50.950;5.346;2023-02-15T02:45:09;5.20;8.20
33903;DHT22;20194;50.950;5.346;2023-02-15T02:50:16;5.10;2.10
33903;DHT22;20194;50.950;5.346;2023-02-15T02:52:48;5.20;1.00
33903;DHT22;20194;50.950;5.346;2023-02-15T02:57:57;5.00;2.00
33903;DHT22;20194;50.950;5.346;2023-02-15T03:00:29;4.90;6.80
33903;DHT22;20194;50.950;5.346;2023-02-15T03:03:02;4.90;5.60
33903;DHT22;20194;50.950;5.346;2023-02-15T03:05:32;5.00;5.40
33903;DHT22;20194;50.950;5.346;2023-02-15T03:08:01;5.00;4.50
33903;DHT22;20194;50.950;5.346;2023-02-15T03:10:32;4.90;5.10
33903;DHT22;20194;50.950;5.346;2023-02-15T03:12:59;4.70;8.60
33903;DHT22;20194;50.950;5.346;2023-02-15T03:15:30;4.30;19.70
33903;DHT22;20194;50.950;5.346;2023-02-15T03:18:24;3.90;24.60
33903;DHT22;20194;50.950;5.346;2023-02-15T03:20:51;4.10;25.60
33903;DHT22;20194;50.950;5.346;2023-02-15T03:23:22;4.00;23.90
33903;DHT22;20194;50.950;5.346;2023-02-15T03:25:52;4.20;25.40
33903;DHT22;20194;50.950;5.346;2023-02-15T03:28:27;4.30;21.70
33903;DHT22;20194;50.950;5.346;2023-02-15T03:30:56;4.50;17.60
33903;DHT22;20194;50.950;5.346;2023-02-15T03:33:23;4.30;12.80
33903;DHT22;20194;50.950;5.346;2023-02-15T03:36:11;4.40;18.10
33903;DHT22;20194;50.950;5.346;2023-02-15T03:41:19;4.40;19.00
33903;DHT22;20194;50.950;5.346;2023-02-15T03:43:48;4.20;20.10
33903;DHT22;20194;50.950;5.346;2023-02-15T03:46:25;4.20;21.60
33903;DHT22;20194;50.950;5.346;2023-02-15T03:49:42;4.40;21.80
33903;DHT22;20194;50.950;5.346;2023-02-15T03:51:46;4.50;19.30
33903;DHT22;20194;50.950;5.346;2023-02-15T03:54:21;4.50;17.40
33903;DHT22;20194;50.950;5.346;2023-02-15T03:57:11;4.50;16.80
33903;DHT22;20194;50.950;5.346;2023-02-15T03:59:55;4.40;16.60
33903;DHT22;20194;50.950;5.346;2023-02-15T04:05:32;4.50;16.60
33903;DHT22;20194;50.950;5.346;2023-02-15T04:07:58;4.50;15.30
33903;DHT22;20194;50.950;5.346;2023-02-15T04:10:23;4.60;14.00
33903;DHT22;20194;50.950;5.346;2023-02-15T04:13:08;4.60;12.30
33903;DHT22;20194;50.950;5.346;2023-02-15T04:15:33;4.70;13.60
33903;DHT22;20194;50.950;5.346;2023-02-15T04:18:17;4.70;13.20
33903;DHT22;20194;50.950;5.346;2023-02-15T04:20:44;4.60;11.50
33903;DHT22;20194;50.950;5.346;2023-02-15T04:23:29;4.50;16.90
33903;DHT22;20194;50.950;5.346;2023-02-15T04:26:13;4.50;16.40
33903;DHT22;20194;50.950;5.346;2023-02-15T04:28:38;4.40;14.70
33903;DHT22;20194;50.950;5.346;2023-02-15T04:31:04;4.00;25.60
33903;DHT22;20194;50.950;5.346;2023-02-15T04:33:30;4.10;24.40
33903;DHT22;20194;50.950;5.346;2023-02-15T04:35:56;4.30;19.90
33903;DHT22;20194;50.950;5.346;2023-02-15T04:38:22;4.30;15.50
33903;DHT22;20194;50.950;5.346;2023-02-15T04:40:52;4.40;13.00
33903;DHT22;20194;50.950;5.346;2023-02-15T04:43:20;4.40;9.30
33903;DHT22;20194;50.950;5.346;2023-02-15T04:45:50;4.30;7.10
33903;DHT22;20194;50.950;5.346;2023-02-15T04:48:17;4.40;6.30
33903;DHT22;20194;50.950;5.346;2023-02-15T04:50:44;4.40;3.40
33903;DHT22;20194;50.950;5.346;2023-02-15T04:53:10;4.40;3.60
33903;DHT22;20194;50.950;5.346;2023-02-15T04:55:36;4.40;2.60
33903;DHT22;20194;50.950;5.346;2023-02-15T04:58:02;4.40;1.00
33903;DHT22;20194;50.950;5.346;2023-02-15T05:00:27;4.30;1.00
33903;DHT22;20194;50.950;5.346;2023-02-15T05:02:53;4.20;2.10
33903;DHT22;20194;50.950;5.346;2023-02-15T05:05:19;4.20;2.80
33903;DHT22;20194;50.950;5.346;2023-02-15T05:07:45;4.10;2.80
33903;DHT22;20194;50.950;5.346;2023-02-15T05:10:11;4.10;4.60
33903;DHT22;20194;50.950;5.346;2023-02-15T05:12:37;4.00;10.50
33903;DHT22;20194;50.950;5.346;2023-02-15T05:15:02;4.00;12.80
33903;DHT22;20194;50.950;5.346;2023-02-15T05:17:28;4.10;12.60
33903;DHT22;20194;50.950;5.346;2023-02-15T05:19:54;4.20;14.90
33903;DHT22;20194;50.950;5.346;2023-02-15T05:22:19;4.20;12.60
33903;DHT22;20194;50.950;5.346;2023-02-15T05:24:45;4.30;8.30
33903;DHT22;20194;50.950;5.346;2023-02-15T05:27:30;4.30;5.90
33903;DHT22;20194;50.950;5.346;2023-02-15T05:30:14;4.10;3.70
33903;DHT22;20194;50.950;5.346;2023-02-15T05:32:40;4.10;4.30
33903;DHT22;20194;50.950;5.346;2023-02-15T05:35:06;4.00;3.20
33903;DHT22;20194;50.950;5.346;2023-02-15T05:37:33;4.10;4.70
33903;DHT22;20194;50.950;5.346;2023-02-15T05:39:59;4.00;9.30
33903;DHT22;20194;50.950;5.346;2023-02-15T05:42:24;3.90;14.30
33903;DHT22;20194;50.950;5.346;2023-02-15T05:44:50;4.00;17.00
33903;DHT22;20194;50.950;5.346;2023-02-15T05:47:16;3.90;18.40
33903;DHT22;20194;50.950;5.346;2023-02-15T05:49:42;3.90;20.20
33903;DHT22;20194;50.950;5.346;2023-02-15T05:52:07;4.00;20.20
33903;DHT22;20194;50.950;5.346;2023-02-15T05:54:33;4.10;19.10
33903;DHT22;20194;50.950;5.346;2023-02-15T05:56:59;4.10;19.10
33903;DHT22;20194;50.950;5.346;2023-02-15T05:59:25;4.20;17.60
33903;DHT22;20194;50.950;5.346;2023-02-15T06:01:51;4.20;16.00
33903;DHT22;20194;50.950;5.346;2023-02-15T06:04:16;4.30;14.30
33903;DHT22;20194;50.950;5.346;2023-02-15T06:06:43;4.30;12.30
33903;DHT22;20194;50.950;5.346;2023-02-15T06:09:10;4.30;11.20
33903;DHT22;20194;50.950;5.346;2023-02-15T06:11:36;4.20;12.70
33903;DHT22;20194;50.950;5.346;2023-02-15T06:14:02;4.30;12.60
33903;DHT22;20194;50.950;5.346;2023-02-15T06:16:27;4.30;13.00
33903;DHT22;20194;50.950;5.346;2023-02-15T06:18:53;4.20;13.80
33903;DHT22;20194;50.950;5.346;2023-02-15T06:21:19;4.20;16.40
33903;DHT22;20194;50.950;5.346;2023-02-15T06:23:44;4.20;14.30
33903;DHT22;20194;50.950;5.346;2023-02-15T06:26:10;4.30;13.30
33903;DHT22;20194;50.950;5.346;2023-02-15T06:28:36;4.30;12.10
33903;DHT22;20194;50.950;5.346;2023-02-15T06:31:03;4.30;13.90
33903;DHT22;20194;50.950;5.346;2023-02-15T06:33:29;4.20;15.10
33903;DHT22;20194;50.950;5.346;2023-02-15T06:35:55;4.20;15.40
33903;DHT22;20194;50.950;5.346;2023-02-15T06:38:22;4.20;15.20
33903;DHT22;20194;50.950;5.346;2023-02-15T06:40:47;4.10;14.70
33903;DHT22;20194;50.950;5.346;2023-02-15T06:43:13;4.00;18.70
33903;DHT22;20194;50.950;5.346;2023-02-15T06:45:39;4.00;22.10
33903;DHT22;20194;50.950;5.346;2023-02-15T06:48:06;4.00;21.90
33903;DHT22;20194;50.950;5.346;2023-02-15T06:50:34;4.10;21.20
33903;DHT22;20194;50.950;5.346;2023-02-15T06:53:00;4.10;19.20
33903;DHT22;20194;50.950;5.346;2023-02-15T06:55:26;4.10;20.30
33903;DHT22;20194;50.950;5.346;2023-02-15T06:57:51;4.10;19.70
33903;DHT22;20194;50.950;5.346;2023-02-15T07:00:18;4.20;18.40
33903;DHT22;20194;50.950;5.346;2023-02-15T07:02:44;4.30;16.50
33903;DHT22;20194;50.950;5.346;2023-02-15T07:05:10;4.30;14.50
33903;DHT22;20194;50.950;5.346;2023-02-15T07:07:35;4.30;13.70
33903;DHT22;20194;50.950;5.346;2023-02-15T07:10:03;4.30;14.30
33903;DHT22;20194;50.950;5.346;2023-02-15T07:12:28;4.30;14.30
33903;DHT22;20194;50.950;5.346;2023-02-15T07:15:07;4.20;17.70
33903;DHT22;20194;50.950;5.346;2023-02-15T07:17:35;4.20;20.00
33903;DHT22;20194;50.950;5.346;2023-02-15T07:20:03;4.20;19.50
33903;DHT22;20194;50.950;5.346;2023-02-15T07:22:28;4.10;21.30
33903;DHT22;20194;50.950;5.346;2023-02-15T07:24:54;4.20;22.00
33903;DHT22;20194;50.950;5.346;2023-02-15T07:27:20;4.20;20.80
33903;DHT22;20194;50.950;5.346;2023-02-15T07:29:46;4.20;20.10
33903;DHT22;20194;50.950;5.346;2023-02-15T07:32:12;4.20;20.10
33903;DHT22;20194;50.950;5.346;2023-02-15T07:34:38;4.30;20.40
33903;DHT22;20194;50.950;5.346;2023-02-15T07:37:03;4.20;22.70
33903;DHT22;20194;50.950;5.346;2023-02-15T07:39:30;4.30;22.30
33903;DHT22;20194;50.950;5.346;2023-02-15T07:41:55;4.40;20.90
33903;DHT22;20194;50.950;5.346;2023-02-15T07:44:21;4.50;19.90
33903;DHT22;20194;50.950;5.346;2023-02-15T07:46:47;4.60;18.70
33903;DHT22;20194;50.950;5.346;2023-02-15T07:49:12;4.60;19.00
33903;DHT22;20194;50.950;5.346;2023-02-15T07:51:38;4.60;20.40
33903;DHT22;20194;50.950;5.346;2023-02-15T07:54:06;4.60;19.20
33903;DHT22;20194;50.950;5.346;2023-02-15T07:56:32;4.70;21.00
33903;DHT22;20194;50.950;5.346;2023-02-15T07:58:58;4.70;20.90
33903;DHT22;20194;50.950;5.346;2023-02-15T08:01:29;4.70;22.30
33903;DHT22;20194;50.950;5.346;2023-02-15T08:03:55;4.60;25.50
33903;DHT22;20194;50.950;5.346;2023-02-15T08:06:23;4.50;26.10
33903;DHT22;20194;50.950;5.346;2023-02-15T08:08:49;4.50;29.40
33903;DHT22;20194;50.950;5.346;2023-02-15T08:11:17;4.60;27.80
33903;DHT22;20194;50.950;5.346;2023-02-15T08:14:01;4.80;26.10
33903;DHT22;20194;50.950;5.346;2023-02-15T08:19:02;4.90;27.70
33903;DHT22;20194;50.950;5.346;2023-02-15T08:21:29;4.90;26.90
33903;DHT22;20194;50.950;5.346;2023-02-15T08:23:58;5.00;27.20
33903;DHT22;20194;50.950;5.346;2023-02-15T08:26:25;5.20;25.00
33903;DHT22;20194;50.950;5.346;2023-02-15T08:28:51;5.30;24.40
33903;DHT22;20194;50.950;5.346;2023-02-15T08:31:18;5.40;21.80
33903;DHT22;20194;50.950;5.346;2023-02-15T08:33:46;5.40;22.60
33903;DHT22;20194;50.950;5.346;2023-02-15T08:36:15;5.40;24.60
33903;DHT22;20194;50.950;5.346;2023-02-15T08:38:42;5.50;23.90
33903;DHT22;20194;50.950;5.346;2023-02-15T08:41:18;5.50;23.30
33903;DHT22;20194;50.950;5.346;2023-02-15T08:43:45;5.60;24.70
33903;DHT22;20194;50.950;5.346;2023-02-15T08:46:12;5.70;23.10
33903;DHT22;20194;50.950;5.346;2023-02-15T08:48:39;5.80;21.80
33903;DHT22;20194;50.950;5.346;2023-02-15T08:51:25;5.90;21.30
33903;DHT22;20194;50.950;5.346;2023-02-15T08:53:54;6.10;20.00
33903;DHT22;20194;50.950;5.346;2023-02-15T08:56:22;6.10;20.10
33903;DHT22;20194;50.950;5.346;2023-02-15T08:58:49;6.10;20.50
33903;DHT22;20194;50.950;5.346;2023-02-15T09:01:17;6.30;20.00
33903;DHT22;20194;50.950;5.346;2023-02-15T09:03:44;6.40;18.20
33903;DHT22;20194;50.950;5.346;2023-02-15T09:06:11;6.40;16.20
33903;DHT22;20194;50.950;5.346;2023-02-15T09:08:37;6.30;20.30
33903;DHT22;20194;50.950;5.346;2023-02-15T09:11:06;6.30;23.50
33903;DHT22;20194;50.950;5.346;2023-02-15T09:13:33;6.40;22.20
33903;DHT22;20194;50.950;5.346;2023-02-15T09:16:05;6.60;21.10
33903;DHT22;20194;50.950;5.346;2023-02-15T09:18:33;6.80;22.40
33903;DHT22;20194;50.950;5.346;2023-02-15T09:21:08;7.00;22.70
33903;DHT22;20194;50.950;5.346;2023-02-15T09:23:34;7.20;20.50
33903;DHT22;20194;50.950;5.346;2023-02-15T09:26:05;7.30;20.10
33903;DHT22;20194;50.950;5.346;2023-02-15T09:28:31;7.60;16.50
33903;DHT22;20194;50.950;5.346;2023-02-15T09:31:05;7.70;13.30
33903;DHT22;20194;50.950;5.346;2023-02-15T09:33:33;7.90;13.30
33903;DHT22;20194;50.950;5.346;2023-02-15T09:36:23;8.30;9.50
33903;DHT22;20194;50.950;5.346;2023-02-15T09:38:57;8.60;6.00
33903;DHT22;20194;50.950;5.346;2023-02-15T10:03:16;10.10;1.00
33903;DHT22;20194;50.950;5.346;2023-02-15T10:14:15;10.50;1.00
33903;DHT22;20194;50.950;5.346;2023-02-15T10:19:23;10.60;1.00
33903;DHT22;20194;50.950;5.346;2023-02-15T10:27:47;11.10;1.00
33903;DHT22;20194;50.950;5.346;2023-02-15T10:32:59;11.30;1.00
33903;DHT22;20194;50.950;5.346;2023-02-15T10:35:46;11.40;1.00
33903;DHT22;20194;50.950;5.346;2023-02-15T10:38:21;11.40;1.00
33903;DHT22;20194;50.950;5.346;2023-02-15T10:41:12;11.40;1.00
33903;DHT22;20194;50.950;5.346;2023-02-15T10:44:02;11.60;1.00
33903;DHT22;20194;50.950;5.346;2023-02-15T10:49:26;11.90;1.00
33903;DHT22;20194;50.950;5.346;2023-02-15T10:54:59;12.00;1.00
33903;DHT22;20194;50.950;5.346;2023-02-15T10:57:37;12.00;1.00
33903;DHT22;20194;50.950;5.346;2023-02-15T11:03:24;12.10;1.00
33903;DHT22;20194;50.950;5.346;2023-02-15T11:06:09;12.30;1.00
33903;DHT22;20194;50.950;5.346;2023-02-15T11:08:44;12.40;1.00
33903;DHT22;20194;50.950;5.346;2023-02-15T11:11:16;12.50;1.00
33903;DHT22;20194;50.950;5.346;2023-02-15T11:13:51;12.60;1.00
33903;DHT22;20194;50.950;5.346;2023-02-15T11:16:32;12.70;1.00
33903;DHT22;20194;50.950;5.346;2023-02-15T11:19:07;12.90;1.00
33903;DHT22;20194;50.950;5.346;2023-02-15T11:21:43;12.90;1.00
33903;DHT22;20194;50.950;5.346;2023-02-15T11:24:11;12.90;1.00
33903;DHT22;20194;50.950;5.346;2023-02-15T11:27:16;13.00;1.00
33903;DHT22;20194;50.950;5.346;2023-02-15T11:29:46;13.10;1.00
33903;DHT22;20194;50.950;5.346;2023-02-15T11:32:14;13.10;1.00
33903;DHT22;20194;50.950;5.346;2023-02-15T11:37:27;13.30;1.00
33903;DHT22;20194;50.950;5.346;2023-02-15T11:39:54;13.40;99.90
33903;DHT22;20194;50.950;5.346;2023-02-15T11:42:23;13.40;99.90
33903;DHT22;20194;50.950;5.346;2023-02-15T11:47:23;13.60;99.90
33903;DHT22;20194;50.950;5.346;2023-02-15T11:49:49;13.70;99.90
33903;DHT22;20194;50.950;5.346;2023-02-15T11:52:17;13.70;99.90
33903;DHT22;20194;50.950;5.346;2023-02-15T11:54:46;13.60;99.90
33903;DHT22;20194;50.950;5.346;2023-02-15T11:57:32;13.70;99.90
33903;DHT22;20194;50.950;5.346;2023-02-15T12:00:12;14.00;99.90
33903;DHT22;20194;50.950;5.346;2023-02-15T12:02:42;14.10;99.90
33903;DHT22;20194;50.950;5.346;2023-02-15T12:05:15;14.10;99.90
33903;DHT22;20194;50.950;5.346;2023-02-15T12:07:50;14.00;99.90
33903;DHT22;20194;50.950;5.346;2023-02-15T12:10:24;14.00;99.90
33903;DHT22;20194;50.950;5.346;2023-02-15T12:15:42;14.00;99.90
33903;DHT22;20194;50.950;5.346;2023-02-15T12:18:37;13.90;99.90
33903;DHT22;20194;50.950;5.346;2023-02-15T12:21:09;13.70;99.90
33903;DHT22;20194;50.950;5.346;2023-02-15T12:23:46;13.80;99.90
33903;DHT22;20194;50.950;5.346;2023-02-15T12:26:13;13.80;99.90
33903;DHT22;20194;50.950;5.346;2023-02-15T12:28:44;13.80;99.90
33903;DHT22;20194;50.950;5.346;2023-02-15T12:33:46;13.90;99.90
33903;DHT22;20194;50.950;5.346;2023-02-15T12:36:15;14.00;99.90
33903;DHT22;20194;50.950;5.346;2023-02-15T12:38:42;14.00;90.80
33903;DHT22;20194;50.950;5.346;2023-02-15T12:41:24;14.00;1.00
33903;DHT22;20194;50.950;5.346;2023-02-15T12:44:21;14.00;1.00
33903;DHT22;20194;50.950;5.346;2023-02-15T12:49:29;14.10;98.00
33903;DHT22;20194;50.950;5.346;2023-02-15T12:51:59;14.20;99.90
33903;DHT22;20194;50.950;5.346;2023-02-15T12:54:34;14.20;99.90
33903;DHT22;20194;50.950;5.346;2023-02-15T12:59:48;14.10;99.90
33903;DHT22;20194;50.950;5.346;2023-02-15T13:02:41;13.90;99.90
33903;DHT22;20194;50.950;5.346;2023-02-15T13:07:52;13.80;99.90
33903;DHT22;20194;50.950;5.346;2023-02-15T13:12:51;13.80;99.90
33903;DHT22;20194;50.950;5.346;2023-02-15T13:15:34;13.90;99.90
33903;DHT22;20194;50.950;5.346;2023-02-15T13:18:01;14.00;99.90
33903;DHT22;20194;50.950;5.346;2023-02-15T13:20:28;14.00;99.90
33903;DHT22;20194;50.950;5.346;2023-02-15T13:23:03;14.00;99.90
33903;DHT22;20194;50.950;5.346;2023-02-15T13:25:35;13.90;99.90
33903;DHT22;20194;50.950;5.346;2023-02-15T13:28:07;13.80;99.90
33903;DHT22;20194;50.950;5.346;2023-02-15T13:30:40;13.80;99.90
33903;DHT22;20194;50.950;5.346;2023-02-15T13:33:33;13.80;99.90
33903;DHT22;20194;50.950;5.346;2023-02-15T13:41:36;13.60;1.00
33903;DHT22;20194;50.950;5.346;2023-02-15T14:03:14;13.80;1.00
33903;DHT22;20194;50.950;5.346;2023-02-15T14:16:24;13.80;1.00
33903;DHT22;20194;50.950;5.346;2023-02-15T14:19:05;13.80;1.00
33903;DHT22;20194;50.950;5.346;2023-02-15T14:27:14;13.70;1.00
33903;DHT22;20194;50.950;5.346;2023-02-15T14:29:59;13.70;1.00
33903;DHT22;20194;50.950;5.346;2023-02-15T14:32:41;13.90;1.00
33903;DHT22;20194;50.950;5.346;2023-02-15T14:35:28;13.90;1.00
33903;DHT22;20194;50.950;5.346;2023-02-15T15:02:21;13.40;1.00
33903;DHT22;20194;50.950;5.346;2023-02-15T15:04:59;13.40;1.00
33903;DHT22;20194;50.950;5.346;2023-02-15T15:10:43;13.40;1.00
33903;DHT22;20194;50.950;5.346;2023-02-15T15:19:02;13.40;1.00
33903;DHT22;20194;50.950;5.346;2023-02-15T15:36:18;13.60;1.00
33903;DHT22;20194;50.950;5.346;2023-02-15T15:38:56;13.50;1.00
33903;DHT22;20194;50.950;5.346;2023-02-15T15:41:53;13.50;1.00
33903;DHT22;20194;50.950;5.346;2023-02-15T15:49:56;13.40;1.00
33903;DHT22;20194;50.950;5.346;2023-02-15T15:52:22;13.50;1.00
33903;DHT22;20194;50.950;5.346;2023-02-15T15:54:55;13.40;1.00
33903;DHT22;20194;50.950;5.346;2023-02-15T15:59:50;13.20;1.00
33903;DHT22;20194;50.950;5.346;2023-02-15T16:02:17;13.40;1.00
33903;DHT22;20194;50.950;5.346;2023-02-15T16:04:44;13.40;1.00
33903;DHT22;20194;50.950;5.346;2023-02-15T16:09:56;13.30;1.00
33903;DHT22;20194;50.950;5.346;2023-02-15T16:12:22;13.40;1.00
33903;DHT22;20194;50.950;5.346;2023-02-15T16:14:48;13.40;1.00
33903;DHT22;20194;50.950;5.346;2023-02-15T16:17:28;13.50;1.00
33903;DHT22;20194;50.950;5.346;2023-02-15T16:20:33;13.50;1.00
33903;DHT22;20194;50.950;5.346;2023-02-15T16:23:26;13.40;1.00
33903;DHT22;20194;50.950;5.346;2023-02-15T16:28:50;13.20;1.00
33903;DHT22;20194;50.950;5.346;2023-02-15T16:31:17;13.20;1.00
33903;DHT22;20194;50.950;5.346;2023-02-15T16:33:44;13.40;1.00
33903;DHT22;20194;50.950;5.346;2023-02-15T16:36:24;13.30;1.00
33903;DHT22;20194;50.950;5.346;2023-02-15T16:41:22;13.30;1.00
33903;DHT22;20194;50.950;5.346;2023-02-15T16:43:49;13.20;1.00
33903;DHT22;20194;50.950;5.346;2023-02-15T16:46:27;13.30;1.00
33903;DHT22;20194;50.950;5.346;2023-02-15T16:49:00;13.30;1.00
33903;DHT22;20194;50.950;5.346;2023-02-15T16:51:28;13.40;1.00
33903;DHT22;20194;50.950;5.346;2023-02-15T16:53:57;13.30;1.00
33903;DHT22;20194;50.950;5.346;2023-02-15T16:56:26;13.10;1.00
33903;DHT22;20194;50.950;5.346;2023-02-15T16:58:54;13.10;1.00
33903;DHT22;20194;50.950;5.346;2023-02-15T17:01:23;13.10;1.00
33903;DHT22;20194;50.950;5.346;2023-02-15T17:04:09;12.80;1.00
33903;DHT22;20194;50.950;5.346;2023-02-15T17:06:35;12.70;1.00
33903;DHT22;20194;50.950;5.346;2023-02-15T17:09:06;12.90;1.00
33903;DHT22;20194;50.950;5.346;2023-02-15T17:11:40;12.80;1.00
33903;DHT22;20194;50.950;5.346;2023-02-15T17:19:16;12.70;1.00
33903;DHT22;20194;50.950;5.346;2023-02-15T17:21:54;12.80;1.00
33903;DHT22;20194;50.950;5.346;2023-02-15T17:27:13;12.90;1.00
33903;DHT22;20194;50.950;5.346;2023-02-15T17:29:46;12.70;1.00
33903;DHT22;20194;50.950;5.346;2023-02-15T17:32:25;12.60;1.00
33903;DHT22;20194;50.950;5.346;2023-02-15T17:37:26;12.60;1.00
33903;DHT22;20194;50.950;5.346;2023-02-15T17:39:53;12.50;1.00
33903;DHT22;20194;50.950;5.346;2023-02-15T17:42:19;12.40;1.00
33903;DHT22;20194;50.950;5.346;2023-02-15T17:44:45;12.40;1.00
33903;DHT22;20194;50.950;5.346;2023-02-15T17:47:22;12.30;1.00
33903;DHT22;20194;50.950;5.346;2023-02-15T17:49:50;12.10;1.00
33903;DHT22;20194;50.950;5.346;2023-02-15T17:52:16;12.00;1.00
33903;DHT22;20194;50.950;5.346;2023-02-15T17:54:43;12.00;1.00
33903;DHT22;20194;50.950;5.346;2023-02-15T17:57:29;12.10;1.00
33903;DHT22;20194;50.950;5.346;2023-02-15T17:59:55;12.10;1.00
33903;DHT22;20194;50.950;5.346;2023-02-15T18:02:40;11.90;1.00
33903;DHT22;20194;50.950;5.346;2023-02-15T18:05:25;11.90;1.00
33903;DHT22;20194;50.950;5.346;2023-02-15T18:08:12;11.80;1.00
33903;DHT22;20194;50.950;5.346;2023-02-15T18:10:57;11.70;1.00
33903;DHT22;20194;50.950;5.346;2023-02-15T18:13:41;11.60;1.00
33903;DHT22;20194;50.950;5.346;2023-02-15T18:16:14;11.60;1.00
33903;DHT22;20194;50.950;5.346;2023-02-15T18:18:40;11.50;1.00
33903;DHT22;20194;50.950;5.346;2023-02-15T18:21:05;11.40;1.00
33903;DHT22;20194;50.950;5.346;2023-02-15T18:23:34;11.40;1.00
33903;DHT22;20194;50.950;5.346;2023-02-15T18:25:59;11.30;1.00
33903;DHT22;20194;50.950;5.346;2023-02-15T18:28:25;11.30;1.00
33903;DHT22;20194;50.950;5.346;2023-02-15T18:30:51;11.40;1.00
33903;DHT22;20194;50.950;5.346;2023-02-15T18:35:58;11.10;1.00
33903;DHT22;20194;50.950;5.346;2023-02-15T18:38:24;10.90;1.00
33903;DHT22;20194;50.950;5.346;2023-02-15T18:40:50;10.90;1.00
33903;DHT22;20194;50.950;5.346;2023-02-15T18:43:15;11.00;1.00
33903;DHT22;20194;50.950;5.346;2023-02-15T18:45:41;11.10;1.00
33903;DHT22;20194;50.950;5.346;2023-02-15T18:48:07;11.10;1.00
33903;DHT22;20194;50.950;5.346;2023-02-15T18:50:34;11.10;1.00
33903;DHT22;20194;50.950;5.346;2023-02-15T18:53:01;11.10;1.00
33903;DHT22;20194;50.950;5.346;2023-02-15T18:55:27;11.00;1.00
33903;DHT22;20194;50.950;5.346;2023-02-15T18:57:54;11.10;1.00
33903;DHT22;20194;50.950;5.346;2023-02-15T19:00:24;11.10;1.00
33903;DHT22;20194;50.950;5.346;2023-02-15T19:02:50;11.00;1.00
33903;DHT22;20194;50.950;5.346;2023-02-15T19:05:15;11.00;1.00
33903;DHT22;20194;50.950;5.346;2023-02-15T19:07:42;11.00;1.00
33903;DHT22;20194;50.950;5.346;2023-02-15T19:10:33;11.00;1.00
33903;DHT22;20194;50.950;5.346;2023-02-15T19:12:58;10.90;1.00
33903;DHT22;20194;50.950;5.346;2023-02-15T19:15:24;11.00;1.00
33903;DHT22;20194;50.950;5.346;2023-02-15T19:17:50;11.10;1.00
33903;DHT22;20194;50.950;5.346;2023-02-15T19:22:42;11.20;1.00
33903;DHT22;20194;50.950;5.346;2023-02-15T19:25:12;11.00;1.00
33903;DHT22;20194;50.950;5.346;2023-02-15T19:27:39;10.90;1.00
33903;DHT22;20194;50.950;5.346;2023-02-15T19:30:18;10.80;1.00
33903;DHT22;20194;50.950;5.346;2023-02-15T19:32:44;10.70;1.00
33903;DHT22;20194;50.950;5.346;2023-02-15T19:35:14;10.60;1.00
33903;DHT22;20194;50.950;5.346;2023-02-15T19:37:39;10.60;1.00
33903;DHT22;20194;50.950;5.346;2023-02-15T19:40:06;10.80;1.00
33903;DHT22;20194;50.950;5.346;2023-02-15T19:42:32;10.70;1.00
33903;DHT22;20194;50.950;5.346;2023-02-15T19:44:59;10.60;1.00
33903;DHT22;20194;50.950;5.346;2023-02-15T19:47:26;10.40;1.00
33903;DHT22;20194;50.950;5.346;2023-02-15T19:49:52;10.30;1.00
33903;DHT22;20194;50.950;5.346;2023-02-15T19:52:23;10.40;1.00
33903;DHT22;20194;50.950;5.346;2023-02-15T19:54:50;10.60;1.00
33903;DHT22;20194;50.950;5.346;2023-02-15T19:57:16;10.60;1.00